createdAt,value
2023-04-14T00:00:34.436Z,95801.78
2023-04-14T00:01:36.380Z,95803.34
2023-04-14T00:02:38.354Z,95812.09
2023-04-14T00:03:40.422Z,95802.31
2023-04-14T00:04:42.447Z,95809.69
2023-04-14T00:05:44.327Z,95806.66
2023-04-14T00:06:46.105Z,95807.41
2023-04-14T00:07:47.906Z,95805.44
2023-04-14T00:08:49.693Z,95805.22
2023-04-14T00:09:51.453Z,95808.41
2023-04-14T00:10:53.449Z,95798.84
2023-04-14T00:11:55.159Z,95808.31
2023-04-14T00:12:57.004Z,95804.91
2023-04-14T00:14:01.384Z,95816.81
2023-04-14T00:15:03.524Z,95820.22
2023-04-14T00:16:05.457Z,95819.03
2023-04-14T00:17:07.332Z,95828.91
2023-04-14T00:18:09.181Z,95829.06
2023-04-14T00:19:11.405Z,95828.84
2023-04-14T00:20:13.437Z,95830.41
2023-04-14T00:21:15.209Z,95824.22
2023-04-14T00:22:17.059Z,95824.34
2023-04-14T00:23:18.883Z,95821.59
2023-04-14T00:24:20.871Z,95824.03
2023-04-14T00:25:22.656Z,95820.63
2023-04-14T00:26:24.783Z,95826.22
2023-04-14T00:27:26.636Z,95818.47
2023-04-14T00:28:28.365Z,95815.25
2023-04-14T00:29:30.089Z,95807.09
2023-04-14T00:30:31.896Z,95800.88
2023-04-14T00:31:33.698Z,95799.72
2023-04-14T00:32:35.576Z,95799.59
2023-04-14T00:33:37.471Z,95796.00
2023-04-14T00:34:39.223Z,95791.22
2023-04-14T00:35:41.241Z,95791.16
2023-04-14T00:36:43.737Z,95798.72
2023-04-14T00:37:45.565Z,95797.78
2023-04-14T00:38:47.384Z,95802.19
2023-04-14T00:39:49.091Z,95805.59
2023-04-14T00:40:50.887Z,95807.03
2023-04-14T00:41:52.748Z,95790.75
2023-04-14T00:42:54.528Z,95791.72
2023-04-14T00:43:56.285Z,95796.09
2023-04-14T00:44:58.130Z,95793.50
2023-04-14T00:45:59.895Z,95795.69
2023-04-14T00:47:02.335Z,95791.97
2023-04-14T00:48:04.354Z,95793.53
2023-04-14T00:49:07.083Z,95789.91
2023-04-14T00:50:12.044Z,95791.44
2023-04-14T00:51:14.214Z,95789.63
2023-04-14T00:52:16.004Z,95787.47
2023-04-14T00:53:17.858Z,95790.03
2023-04-14T00:54:20.522Z,95790.22
2023-04-14T00:55:22.401Z,95790.66
2023-04-14T00:56:26.629Z,95796.25
2023-04-14T00:57:29.826Z,95794.28
2023-04-14T00:58:31.942Z,95787.31
2023-04-14T00:59:33.866Z,95788.91
2023-04-14T01:00:36.465Z,95786.31
2023-04-14T01:01:38.386Z,95781.91
2023-04-14T01:02:40.585Z,95790.41
2023-04-14T01:03:42.802Z,95783.44
2023-04-14T01:04:53.747Z,95780.66
2023-04-14T01:05:57.127Z,95786.06
2023-04-14T01:06:59.073Z,95784.63
2023-04-14T01:08:01.821Z,95779.69
2023-04-14T01:09:04.576Z,95788.03
2023-04-14T01:10:06.832Z,95785.03
2023-04-14T01:11:38.252Z,95782.78
2023-04-14T01:13:02.080Z,95785.34
2023-04-14T01:14:11.927Z,95795.72
2023-04-14T01:15:32.911Z,95797.75
2023-04-14T01:16:37.211Z,95793.13
2023-04-14T01:17:46.589Z,95795.06
2023-04-14T01:19:11.638Z,95795.94
2023-04-14T01:20:33.894Z,95794.69
2023-04-14T01:21:38.797Z,95806.53
2023-04-14T01:22:48.025Z,95798.38
2023-04-14T01:24:01.221Z,95810.09
2023-04-14T01:25:10.594Z,95807.31
2023-04-14T01:26:19.986Z,95807.38
2023-04-14T01:27:24.788Z,95808.59
2023-04-14T01:28:26.698Z,95802.91
2023-04-14T01:29:49.144Z,95814.19
2023-04-14T01:31:02.988Z,95803.25
2023-04-14T01:32:12.321Z,95805.22
2023-04-14T01:33:17.770Z,95801.47
2023-04-14T01:34:25.626Z,95796.56
2023-04-14T01:35:49.155Z,95793.25
2023-04-14T01:37:11.688Z,95801.94
2023-04-14T01:38:19.191Z,95797.00
2023-04-14T01:39:23.320Z,95800.72
2023-04-14T01:40:27.584Z,95804.31
2023-04-14T01:41:30.537Z,95795.78
2023-04-14T01:42:36.444Z,95792.75
2023-04-14T01:43:40.262Z,95795.94
2023-04-14T01:44:43.191Z,95793.19
2023-04-14T01:45:52.894Z,95792.94
2023-04-14T01:46:57.581Z,95794.25
2023-04-14T01:47:59.717Z,95793.25
2023-04-14T01:49:02.166Z,95797.06
2023-04-14T01:50:05.798Z,95791.28
2023-04-14T01:51:08.571Z,95785.91
2023-04-14T01:52:11.735Z,95790.44
2023-04-14T01:53:15.395Z,95786.25
2023-04-14T01:54:18.713Z,95783.69
2023-04-14T01:55:21.125Z,95782.88
2023-04-14T01:56:23.899Z,95787.25
2023-04-14T01:57:26.864Z,95782.31
2023-04-14T01:58:30.861Z,95784.38
2023-04-14T01:59:33.948Z,95796.69
2023-04-14T02:00:37.414Z,95791.16
2023-04-14T02:01:40.370Z,95789.00
2023-04-14T02:02:44.778Z,95786.25
2023-04-14T02:03:49.556Z,95788.41
2023-04-14T02:04:52.457Z,95793.88
2023-04-14T02:05:55.712Z,95789.88
2023-04-14T02:06:59.192Z,95791.28
2023-04-14T02:08:01.855Z,95785.16
2023-04-14T02:09:05.907Z,95785.94
2023-04-14T02:10:11.259Z,95786.13
2023-04-14T02:11:14.621Z,95781.19
2023-04-14T02:12:19.053Z,95774.81
2023-04-14T02:13:22.577Z,95772.63
2023-04-14T02:14:24.790Z,95774.06
2023-04-14T02:15:28.811Z,95772.44
2023-04-14T02:16:30.716Z,95771.03
2023-04-14T02:17:33.428Z,95778.69
2023-04-14T02:18:36.086Z,95779.53
2023-04-14T02:19:38.570Z,95779.75
2023-04-14T02:20:45.257Z,95771.66
2023-04-14T02:21:48.295Z,95766.94
2023-04-14T02:22:50.172Z,95769.13
2023-04-14T02:23:51.937Z,95780.44
2023-04-14T02:24:55.400Z,95772.50
2023-04-14T02:26:11.350Z,95775.06
2023-04-14T02:27:22.728Z,95780.44
2023-04-14T02:28:28.336Z,95774.06
2023-04-14T02:29:30.966Z,95769.44
2023-04-14T02:30:35.859Z,95767.41
2023-04-14T02:31:40.205Z,95760.25
2023-04-14T02:32:45.505Z,95759.63
2023-04-14T02:33:51.868Z,95754.03
2023-04-14T02:35:01.780Z,95757.22
2023-04-14T02:36:11.383Z,95758.81
2023-04-14T02:37:17.061Z,95754.88
2023-04-14T02:38:21.281Z,95753.31
2023-04-14T02:39:43.027Z,95757.28
2023-04-14T02:40:45.275Z,95754.16
2023-04-14T02:41:48.983Z,95753.59
2023-04-14T02:42:53.111Z,95753.22
2023-04-14T02:44:04.571Z,95760.59
2023-04-14T02:45:07.500Z,95750.28
2023-04-14T02:46:10.037Z,95751.66
2023-04-14T02:47:14.000Z,95749.69
2023-04-14T02:48:16.824Z,95736.97
2023-04-14T02:49:19.864Z,95740.28
2023-04-14T02:50:22.341Z,95741.44
2023-04-14T02:51:24.469Z,95731.91
2023-04-14T02:52:29.881Z,95732.53
2023-04-14T02:53:32.368Z,95727.38
2023-04-14T02:54:36.113Z,95726.34
2023-04-14T02:55:38.230Z,95733.47
2023-04-14T02:56:40.519Z,95736.84
2023-04-14T02:57:42.504Z,95734.69
2023-04-14T02:58:44.430Z,95740.63
2023-04-14T02:59:47.745Z,95740.03
2023-04-14T03:00:50.271Z,95739.41
2023-04-14T03:01:53.001Z,95738.25
2023-04-14T03:02:56.293Z,95744.22
2023-04-14T03:03:58.301Z,95735.69
2023-04-14T03:05:00.923Z,95739.47
2023-04-14T03:06:03.902Z,95738.31
2023-04-14T03:07:06.995Z,95734.53
2023-04-14T03:08:10.796Z,95725.44
2023-04-14T03:09:13.209Z,95712.38
2023-04-14T03:10:15.010Z,95709.00
2023-04-14T03:11:18.278Z,95699.44
2023-04-14T03:12:20.603Z,95704.16
2023-04-14T03:13:24.395Z,95701.41
2023-04-14T03:14:26.891Z,95707.97
2023-04-14T03:15:28.739Z,95706.16
2023-04-14T03:16:30.940Z,95704.03
2023-04-14T03:17:33.281Z,95699.84
2023-04-14T03:18:35.711Z,95693.88
2023-04-14T03:19:41.909Z,95699.84
2023-04-14T03:20:46.177Z,95703.84
2023-04-14T03:21:49.775Z,95701.44
2023-04-14T03:22:58.041Z,95711.72
2023-04-14T03:24:00.218Z,95705.69
2023-04-14T03:25:02.129Z,95716.03
2023-04-14T03:26:04.046Z,95720.00
2023-04-14T03:27:09.098Z,95724.31
2023-04-14T03:28:17.335Z,95717.03
2023-04-14T03:29:21.894Z,95716.81
2023-04-14T03:30:26.160Z,95714.47
2023-04-14T03:31:32.865Z,95719.47
2023-04-14T03:32:41.848Z,95721.03
2023-04-14T03:33:46.378Z,95721.66
2023-04-14T03:34:50.008Z,95718.88
2023-04-14T03:35:53.808Z,95722.25
2023-04-14T03:36:57.325Z,95709.56
2023-04-14T03:38:01.251Z,95711.13
2023-04-14T03:39:05.120Z,95710.06
2023-04-14T03:40:11.550Z,95706.09
2023-04-14T03:41:14.362Z,95705.22
2023-04-14T03:42:16.973Z,95707.16
2023-04-14T03:43:24.004Z,95706.38
2023-04-14T03:44:26.475Z,95713.72
2023-04-14T03:45:28.622Z,95711.13
2023-04-14T03:46:30.987Z,95713.97
2023-04-14T03:47:33.479Z,95717.69
2023-04-14T03:48:37.041Z,95722.06
2023-04-14T03:49:39.738Z,95718.13
2023-04-14T03:50:43.270Z,95724.50
2023-04-14T03:51:46.113Z,95718.97
2023-04-14T03:52:50.650Z,95713.22
2023-04-14T03:53:54.082Z,95715.78
2023-04-14T03:54:59.247Z,95703.69
2023-04-14T03:56:02.705Z,95708.41
2023-04-14T03:57:06.461Z,95714.16
2023-04-14T03:58:09.146Z,95707.94
2023-04-14T03:59:13.635Z,95707.78
2023-04-14T04:00:16.649Z,95711.56
2023-04-14T04:01:20.010Z,95705.22
2023-04-14T04:02:22.772Z,95706.38
2023-04-14T04:03:26.088Z,95709.91
2023-04-14T04:04:29.404Z,95703.19
2023-04-14T04:05:31.331Z,95707.50
2023-04-14T04:06:33.745Z,95703.97
2023-04-14T04:07:36.003Z,95703.19
2023-04-14T04:08:38.173Z,95710.69
2023-04-14T04:09:40.079Z,95707.94
2023-04-14T04:10:42.855Z,95707.94
2023-04-14T04:11:47.271Z,95709.75
2023-04-14T04:12:49.804Z,95716.28
2023-04-14T04:13:52.003Z,95715.94
2023-04-14T04:14:53.958Z,95716.53
2023-04-14T04:15:55.973Z,95714.38
2023-04-14T04:17:00.092Z,95707.25
2023-04-14T04:18:03.586Z,95698.16
2023-04-14T04:19:06.433Z,95693.81
2023-04-14T04:20:10.612Z,95680.91
2023-04-14T04:21:14.711Z,95676.50
2023-04-14T04:22:17.719Z,95671.09
2023-04-14T04:23:21.238Z,95668.16
2023-04-14T04:24:24.711Z,95664.59
2023-04-14T04:25:26.612Z,95665.97
2023-04-14T04:26:29.034Z,95667.59
2023-04-14T04:27:30.888Z,95667.59
2023-04-14T04:28:32.915Z,95664.41
2023-04-14T04:29:34.742Z,95669.75
2023-04-14T04:30:39.308Z,95667.16
2023-04-14T04:31:41.198Z,95670.75
2023-04-14T04:32:43.054Z,95674.47
2023-04-14T04:33:46.870Z,95680.63
2023-04-14T04:34:50.126Z,95682.22
2023-04-14T04:35:53.092Z,95689.28
2023-04-14T04:36:54.866Z,95688.78
2023-04-14T04:37:58.642Z,95695.19
2023-04-14T04:39:00.529Z,95700.56
2023-04-14T04:40:04.226Z,95699.56
2023-04-14T04:41:06.065Z,95695.94
2023-04-14T04:42:08.005Z,95697.53
2023-04-14T04:43:09.814Z,95693.97
2023-04-14T04:44:11.621Z,95702.53
2023-04-14T04:45:13.404Z,95690.78
2023-04-14T04:46:33.861Z,95692.41
2023-04-14T04:47:35.783Z,95688.63
2023-04-14T04:48:37.569Z,95688.47
2023-04-14T04:49:39.293Z,95695.81
2023-04-14T04:50:42.198Z,95691.09
2023-04-14T04:51:44.589Z,95693.09
2023-04-14T04:52:46.520Z,95689.16
2023-04-14T04:53:48.349Z,95696.72
2023-04-14T04:54:52.736Z,95692.56
2023-04-14T04:55:54.525Z,95701.53
2023-04-14T04:56:57.810Z,95691.66
2023-04-14T04:57:59.588Z,95692.34
2023-04-14T04:59:02.048Z,95689.44
2023-04-14T05:00:04.715Z,95691.25
2023-04-14T05:01:10.553Z,95692.44
2023-04-14T05:02:12.658Z,95695.81
2023-04-14T05:03:14.585Z,95692.88
2023-04-14T05:04:16.565Z,95694.63
2023-04-14T05:05:18.322Z,95696.81
2023-04-14T05:06:20.283Z,95706.50
2023-04-14T05:07:22.655Z,95708.44
2023-04-14T05:08:24.379Z,95714.22
2023-04-14T05:09:26.228Z,95716.16
2023-04-14T05:10:28.057Z,95718.75
2023-04-14T05:11:29.914Z,95727.47
2023-04-14T05:12:31.699Z,95727.72
2023-04-14T05:13:33.478Z,95729.25
2023-04-14T05:14:35.273Z,95729.19
2023-04-14T05:15:37.064Z,95730.78
2023-04-14T05:16:38.968Z,95728.84
2023-04-14T05:17:40.783Z,95730.00
2023-04-14T05:18:43.048Z,95722.44
2023-04-14T05:19:44.980Z,95720.06
2023-04-14T05:20:46.916Z,95725.75
2023-04-14T05:21:48.752Z,95723.19
2023-04-14T05:22:50.586Z,95723.41
2023-04-14T05:23:52.381Z,95728.03
2023-04-14T05:24:54.239Z,95719.75
2023-04-14T05:25:59.550Z,95716.16
2023-04-14T05:27:14.355Z,95716.44
2023-04-14T05:28:17.040Z,95702.34
2023-04-14T05:29:18.890Z,95699.44
2023-04-14T05:30:20.712Z,95692.91
2023-04-14T05:31:22.549Z,95686.16
2023-04-14T05:32:24.809Z,95682.41
2023-04-14T05:33:27.547Z,95688.19
2023-04-14T05:34:29.313Z,95689.94
2023-04-14T05:35:31.262Z,95692.13
2023-04-14T05:36:33.154Z,95693.09
2023-04-14T05:37:36.253Z,95690.47
2023-04-14T05:38:41.191Z,95689.06
2023-04-14T05:39:43.012Z,95686.84
2023-04-14T05:40:45.479Z,95697.28
2023-04-14T05:41:47.328Z,95698.88
2023-04-14T05:42:49.096Z,95694.09
2023-04-14T05:43:50.985Z,95698.47
2023-04-14T05:44:52.784Z,95703.53
2023-04-14T05:45:54.708Z,95696.41
2023-04-14T05:46:56.676Z,95687.34
2023-04-14T05:47:58.705Z,95690.72
2023-04-14T05:49:02.134Z,95685.94
2023-04-14T05:50:04.442Z,95697.03
2023-04-14T05:51:06.628Z,95688.94
2023-04-14T05:52:08.843Z,95696.91
2023-04-14T05:53:12.188Z,95692.00
2023-04-14T05:54:14.546Z,95700.78
2023-04-14T05:55:16.603Z,95710.53
2023-04-14T05:56:18.481Z,95705.63
2023-04-14T05:57:20.217Z,95707.63
2023-04-14T05:58:22.123Z,95704.06
2023-04-14T05:59:23.881Z,95710.03
2023-04-14T06:00:25.884Z,95703.03
2023-04-14T06:01:27.943Z,95702.00
2023-04-14T06:02:29.839Z,95696.06
2023-04-14T06:04:34.414Z,95702.44
2023-04-14T06:05:36.268Z,95697.88
2023-04-14T06:06:38.090Z,95692.13
2023-04-14T06:07:42.211Z,95691.13
2023-04-14T06:08:44.008Z,95689.72
2023-04-14T06:09:48.380Z,95683.31
2023-04-14T06:10:50.239Z,95685.88
2023-04-14T06:11:52.052Z,95690.47
2023-04-14T06:12:53.824Z,95692.47
2023-04-14T06:13:55.536Z,95694.88
2023-04-14T06:14:57.367Z,95693.53
2023-04-14T06:15:59.740Z,95683.19
2023-04-14T06:17:01.570Z,95692.34
2023-04-14T06:18:03.523Z,95689.75
2023-04-14T06:19:05.413Z,95682.63
2023-04-14T06:20:07.884Z,95686.22
2023-04-14T06:21:10.056Z,95685.59
2023-04-14T06:22:14.135Z,95695.66
2023-04-14T06:23:16.048Z,95694.44
2023-04-14T06:24:18.017Z,95701.13
2023-04-14T06:25:19.821Z,95692.63
2023-04-14T06:26:22.682Z,95694.22
2023-04-14T06:27:25.540Z,95695.22
2023-04-14T06:28:27.329Z,95701.44
2023-04-14T06:29:29.134Z,95699.09
2023-04-14T06:30:32.625Z,95702.09
2023-04-14T06:31:34.651Z,95707.25
2023-04-14T06:32:36.495Z,95707.03
2023-04-14T06:33:38.436Z,95709.59
2023-04-14T06:34:40.275Z,95710.03
2023-04-14T06:35:43.689Z,95703.69
2023-04-14T06:36:46.139Z,95700.13
2023-04-14T06:37:47.902Z,95692.38
2023-04-14T06:38:49.678Z,95689.00
2023-04-14T06:39:51.637Z,95692.94
2023-04-14T06:40:53.553Z,95698.91
2023-04-14T06:41:55.743Z,95700.94
2023-04-14T06:42:57.615Z,95702.34
2023-04-14T06:43:59.415Z,95701.16
2023-04-14T06:45:01.224Z,95705.09
2023-04-14T06:46:03.052Z,95706.09
2023-04-14T06:47:04.934Z,95703.69
2023-04-14T06:48:07.226Z,95702.47
2023-04-14T06:49:09.082Z,95692.34
2023-04-14T06:50:11.141Z,95689.75
2023-04-14T06:51:13.966Z,95683.03
2023-04-14T06:52:15.716Z,95677.44
2023-04-14T06:53:17.523Z,95681.81
2023-04-14T06:54:19.315Z,95678.41
2023-04-14T06:55:21.994Z,95688.94
2023-04-14T06:56:23.757Z,95685.75
2023-04-14T06:57:26.805Z,95696.06
2023-04-14T06:58:29.080Z,95696.81
2023-04-14T06:59:31.489Z,95701.97
2023-04-14T07:00:33.250Z,95700.34
2023-04-14T07:01:35.085Z,95699.72
2023-04-14T07:02:37.103Z,95693.22
2023-04-14T07:03:39.140Z,95698.81
2023-04-14T07:04:40.984Z,95701.22
2023-04-14T07:05:43.134Z,95694.09
2023-04-14T07:06:44.885Z,95698.06
2023-04-14T07:07:46.710Z,95698.84
2023-04-14T07:08:48.529Z,95701.38
2023-04-14T07:09:50.546Z,95706.72
2023-04-14T07:10:59.389Z,95713.84
2023-04-14T07:12:02.280Z,95713.09
2023-04-14T07:13:04.171Z,95715.88
2023-04-14T07:14:06.395Z,95712.94
2023-04-14T07:15:08.326Z,95708.00
2023-04-14T07:16:10.183Z,95710.38
2023-04-14T07:17:12.023Z,95698.06
2023-04-14T07:18:13.977Z,95699.44
2023-04-14T07:19:15.944Z,95699.25
2023-04-14T07:20:17.743Z,95696.06
2023-04-14T07:21:19.590Z,95698.03
2023-04-14T07:22:21.584Z,95689.72
2023-04-14T07:23:23.426Z,95688.97
2023-04-14T07:24:25.283Z,95685.03
2023-04-14T07:25:27.635Z,95685.47
2023-04-14T07:26:29.354Z,95685.25
2023-04-14T07:27:32.079Z,95675.16
2023-04-14T07:28:33.919Z,95674.31
2023-04-14T07:29:35.852Z,95672.75
2023-04-14T07:30:37.664Z,95673.19
2023-04-14T07:31:40.339Z,95675.97
2023-04-14T07:32:42.613Z,95675.19
2023-04-14T07:33:44.444Z,95678.94
2023-04-14T07:34:46.707Z,95681.88
2023-04-14T07:36:01.287Z,95672.75
2023-04-14T07:37:04.406Z,95671.13
2023-04-14T07:38:07.058Z,95679.28
2023-04-14T07:39:08.875Z,95682.28
2023-04-14T07:40:10.799Z,95688.84
2023-04-14T07:41:12.645Z,95689.25
2023-04-14T07:42:14.573Z,95694.84
2023-04-14T07:43:16.412Z,95690.28
2023-04-14T07:44:18.174Z,95685.31
2023-04-14T07:45:20.060Z,95690.97
2023-04-14T07:46:22.358Z,95695.09
2023-04-14T07:47:24.220Z,95701.69
2023-04-14T07:48:25.984Z,95695.72
2023-04-14T07:49:27.734Z,95705.97
2023-04-14T07:50:29.534Z,95704.00
2023-04-14T07:51:31.666Z,95705.84
2023-04-14T07:52:33.453Z,95711.59
2023-04-14T07:53:40.676Z,95707.06
2023-04-14T07:54:42.566Z,95702.16
2023-04-14T07:55:44.372Z,95706.13
2023-04-14T07:56:46.849Z,95707.31
2023-04-14T07:57:48.716Z,95709.69
2023-04-14T07:58:50.477Z,95714.84
2023-04-14T07:59:52.347Z,95710.88
2023-04-14T08:00:54.795Z,95714.84
2023-04-14T08:01:57.070Z,95709.94
2023-04-14T08:02:59.038Z,95714.13
2023-04-14T08:04:01.214Z,95710.34
2023-04-14T08:05:04.061Z,95710.97
2023-04-14T08:06:07.035Z,95705.63
2023-04-14T08:07:08.908Z,95712.38
2023-04-14T08:08:10.770Z,95710.56
2023-04-14T08:09:12.634Z,95699.03
2023-04-14T08:10:14.406Z,95700.03
2023-04-14T08:11:16.338Z,95694.28
2023-04-14T08:12:18.175Z,95691.88
2023-04-14T08:13:19.912Z,95694.03
2023-04-14T08:14:21.737Z,95683.28
2023-04-14T08:15:23.655Z,95681.53
2023-04-14T08:16:25.601Z,95685.88
2023-04-14T08:17:27.554Z,95682.66
2023-04-14T08:18:29.304Z,95682.50
2023-04-14T08:19:33.996Z,95689.06
2023-04-14T08:20:35.748Z,95679.16
2023-04-14T08:21:37.589Z,95688.94
2023-04-14T08:22:39.439Z,95688.34
2023-04-14T08:23:41.178Z,95692.94
2023-04-14T08:24:42.906Z,95695.94
2023-04-14T08:25:44.911Z,95699.94
2023-04-14T08:26:46.825Z,95704.28
2023-04-14T08:27:48.621Z,95702.91
2023-04-14T08:28:51.066Z,95708.56
2023-04-14T08:29:52.910Z,95704.91
2023-04-14T08:30:54.678Z,95707.25
2023-04-14T08:31:56.501Z,95708.25
2023-04-14T08:32:59.240Z,95700.94
2023-04-14T08:34:01.256Z,95708.84
2023-04-14T08:35:36.067Z,95705.09
2023-04-14T08:36:25.455Z,95711.28
2023-04-14T08:37:27.363Z,95706.75
2023-04-14T08:38:29.422Z,95707.75
2023-04-14T08:39:31.469Z,95712.06
2023-04-14T08:40:38.838Z,95708.88
2023-04-14T08:41:41.106Z,95712.47
2023-04-14T08:42:42.913Z,95711.28
2023-04-14T08:43:45.240Z,95706.16
2023-04-14T08:44:47.702Z,95709.78
2023-04-14T08:45:53.259Z,95706.84
2023-04-14T08:46:56.309Z,95706.63
2023-04-14T08:47:59.368Z,95706.63
2023-04-14T08:49:06.038Z,95710.41
2023-04-14T08:50:13.155Z,95703.88
2023-04-14T08:51:21.790Z,95707.06
2023-04-14T08:52:24.694Z,95711.84
2023-04-14T08:53:28.004Z,95714.22
2023-04-14T08:54:30.294Z,95707.91
2023-04-14T08:55:36.776Z,95709.06
2023-04-14T08:56:39.566Z,95716.00
2023-04-14T08:57:43.818Z,95712.22
2023-04-14T08:58:46.081Z,95705.66
2023-04-14T08:59:48.184Z,95705.06
2023-04-14T09:00:49.964Z,95704.44
2023-04-14T09:01:53.118Z,95708.25
2023-04-14T09:02:57.022Z,95703.28
2023-04-14T09:03:59.288Z,95714.22
2023-04-14T09:05:02.839Z,95719.78
2023-04-14T09:06:06.500Z,95715.09
2023-04-14T09:07:08.460Z,95721.78
2023-04-14T09:08:11.165Z,95726.34
2023-04-14T09:09:13.190Z,95722.19
2023-04-14T09:10:15.250Z,95724.16
2023-04-14T09:11:17.176Z,95728.31
2023-04-14T09:12:21.223Z,95714.66
2023-04-14T09:13:23.572Z,95720.84
2023-04-14T09:14:26.390Z,95725.44
2023-04-14T09:15:29.372Z,95726.66
2023-04-14T09:16:32.196Z,95721.75
2023-04-14T09:17:34.473Z,95723.16
2023-04-14T09:18:36.620Z,95724.19
2023-04-14T09:20:34.642Z,95728.13
2023-04-14T09:21:30.043Z,95727.13
2023-04-14T09:22:22.958Z,95721.78
2023-04-14T09:23:25.839Z,95724.97
2023-04-14T09:24:34.309Z,95720.22
2023-04-14T09:25:36.788Z,95731.34
2023-04-14T09:26:38.675Z,95727.19
2023-04-14T09:27:40.655Z,95722.63
2023-04-14T09:28:42.515Z,95716.69
2023-04-14T09:29:44.651Z,95715.88
2023-04-14T09:30:46.562Z,95705.97
2023-04-14T09:31:48.476Z,95701.94
2023-04-14T09:32:53.529Z,95711.84
2023-04-14T09:33:55.575Z,95708.69
2023-04-14T09:34:58.431Z,95706.31
2023-04-14T09:36:00.632Z,95691.59
2023-04-14T09:37:06.503Z,95691.25
2023-04-14T09:38:08.307Z,95689.03
2023-04-14T09:39:16.714Z,95686.28
2023-04-14T09:40:31.377Z,95695.97
2023-04-14T09:41:33.330Z,95698.34
2023-04-14T09:42:39.896Z,95709.41
2023-04-14T09:43:42.520Z,95708.56
2023-04-14T09:44:54.798Z,95713.91
2023-04-14T09:45:57.797Z,95706.84
2023-04-14T09:47:05.603Z,95704.66
2023-04-14T09:48:08.023Z,95711.84
2023-04-14T09:49:09.898Z,95710.66
2023-04-14T09:50:11.992Z,95706.53
2023-04-14T09:51:14.594Z,95703.78
2023-04-14T09:52:17.228Z,95696.44
2023-04-14T09:53:24.998Z,95707.56
2023-04-14T09:54:26.895Z,95720.88
2023-04-14T09:55:28.649Z,95707.78
2023-04-14T09:56:30.532Z,95708.56
2023-04-14T09:57:32.427Z,95710.56
2023-04-14T09:58:37.320Z,95715.53
2023-04-14T09:59:39.363Z,95715.31
2023-04-14T10:00:41.325Z,95721.44
2023-04-14T10:01:45.714Z,95714.50
2023-04-14T10:02:58.524Z,95718.88
2023-04-14T10:04:02.411Z,95717.28
2023-04-14T10:05:08.503Z,95710.16
2023-04-14T10:06:15.526Z,95716.28
2023-04-14T10:07:19.267Z,95710.16
2023-04-14T10:08:21.087Z,95710.75
2023-04-14T10:09:23.435Z,95705.97
2023-04-14T10:10:25.193Z,95714.28
2023-04-14T10:11:27.854Z,95713.63
2023-04-14T10:12:29.581Z,95711.03
2023-04-14T10:13:32.025Z,95706.63
2023-04-14T10:14:33.940Z,95705.06
2023-04-14T10:15:36.307Z,95698.72
2023-04-14T10:16:38.338Z,95701.09
2023-04-14T10:17:40.236Z,95704.47
2023-04-14T10:18:42.358Z,95703.91
2023-04-14T10:19:44.377Z,95692.81
2023-04-14T10:20:47.126Z,95696.44
2023-04-14T10:21:49.361Z,95699.69
2023-04-14T10:22:52.187Z,95697.31
2023-04-14T10:23:55.785Z,95711.59
2023-04-14T10:24:59.030Z,95704.88
2023-04-14T10:26:01.506Z,95704.06
2023-04-14T10:27:04.137Z,95703.06
2023-04-14T10:28:06.134Z,95708.84
2023-04-14T10:29:07.888Z,95702.47
2023-04-14T10:30:10.343Z,95702.28
2023-04-14T10:31:14.345Z,95700.13
2023-04-14T10:32:16.970Z,95701.53
2023-04-14T10:33:19.218Z,95700.72
2023-04-14T10:34:22.227Z,95703.91
2023-04-14T10:35:24.251Z,95706.50
2023-04-14T10:36:27.444Z,95709.25
2023-04-14T10:37:29.266Z,95709.88
2023-04-14T10:38:57.255Z,95706.69
2023-04-14T10:39:59.813Z,95712.44
2023-04-14T10:41:01.709Z,95710.91
2023-04-14T10:42:03.518Z,95706.16
2023-04-14T10:43:12.110Z,95708.16
2023-04-14T10:44:23.699Z,95711.94
2023-04-14T10:45:25.612Z,95711.94
2023-04-14T10:46:42.376Z,95710.91
2023-04-14T10:47:45.902Z,95714.28
2023-04-14T10:48:48.863Z,95709.53
2023-04-14T10:49:50.720Z,95712.91
2023-04-14T10:50:56.646Z,95711.31
2023-04-14T10:52:02.416Z,95708.13
2023-04-14T10:53:07.223Z,95702.53
2023-04-14T10:54:15.763Z,95704.72
2023-04-14T10:55:21.614Z,95707.25
2023-04-14T10:56:25.438Z,95703.47
2023-04-14T10:57:28.128Z,95701.69
2023-04-14T10:58:30.081Z,95701.53
2023-04-14T10:59:32.317Z,95696.56
2023-04-14T11:00:37.749Z,95696.97
2023-04-14T11:01:41.716Z,95701.38
2023-04-14T11:02:54.637Z,95695.84
2023-04-14T11:03:57.461Z,95705.78
2023-04-14T11:05:00.689Z,95701.81
2023-04-14T11:06:02.481Z,95695.88
2023-04-14T11:07:09.215Z,95693.53
2023-04-14T11:08:19.847Z,95697.91
2023-04-14T11:09:26.766Z,95693.94
2023-04-14T11:10:30.730Z,95698.75
2023-04-14T11:11:32.574Z,95697.56
2023-04-14T11:12:42.632Z,95699.53
2023-04-14T11:13:45.496Z,95703.13
2023-04-14T11:14:47.449Z,95701.34
2023-04-14T11:15:49.294Z,95700.75
2023-04-14T11:17:02.557Z,95696.00
2023-04-14T11:18:14.262Z,95700.56
2023-04-14T11:19:16.627Z,95698.38
2023-04-14T11:20:21.383Z,95699.59
2023-04-14T11:21:23.323Z,95701.97
2023-04-14T11:22:45.848Z,95708.13
2023-04-14T11:23:49.537Z,95707.16
2023-04-14T11:24:51.383Z,95698.38
2023-04-14T11:25:53.955Z,95703.97
2023-04-14T11:26:56.318Z,95714.50
2023-04-14T11:28:01.668Z,95709.16
2023-04-14T11:29:08.534Z,95712.69
2023-04-14T11:30:14.993Z,95713.66
2023-04-14T11:31:21.040Z,95719.06
2023-04-14T11:32:24.984Z,95713.66
2023-04-14T11:33:30.273Z,95709.50
2023-04-14T11:34:33.082Z,95705.13
2023-04-14T11:35:34.927Z,95712.88
2023-04-14T11:36:37.463Z,95707.91
2023-04-14T11:37:39.402Z,95708.31
2023-04-14T11:38:43.143Z,95706.53
2023-04-14T11:39:45.082Z,95709.91
2023-04-14T11:40:50.249Z,95705.53
2023-04-14T11:41:52.202Z,95705.97
2023-04-14T11:42:55.694Z,95712.91
2023-04-14T11:43:58.428Z,95708.13
2023-04-14T11:45:00.415Z,95708.34
2023-04-14T11:46:05.008Z,95706.53
2023-04-14T11:47:06.834Z,95705.72
2023-04-14T11:48:10.603Z,95710.34
2023-04-14T11:49:12.499Z,95709.13
2023-04-14T11:50:14.294Z,95707.34
2023-04-14T11:51:18.794Z,95709.50
2023-04-14T11:52:22.136Z,95706.38
2023-04-14T11:53:23.972Z,95711.72
2023-04-14T11:54:35.268Z,95704.38
2023-04-14T11:55:37.232Z,95715.31
2023-04-14T11:56:40.707Z,95707.56
2023-04-14T11:57:45.974Z,95705.97
2023-04-14T11:58:47.754Z,95708.34
2023-04-14T11:59:50.431Z,95704.78
2023-04-14T12:00:55.499Z,95708.75
2023-04-14T12:01:58.743Z,95707.38
2023-04-14T12:03:04.066Z,95707.97
2023-04-14T12:04:06.722Z,95706.00
2023-04-14T12:05:09.004Z,95700.22
2023-04-14T12:06:10.970Z,95706.81
2023-04-14T12:07:13.741Z,95718.72
2023-04-14T12:08:15.668Z,95705.19
2023-04-14T12:09:17.460Z,95704.41
2023-04-14T12:10:19.676Z,95709.38
2023-04-14T12:11:21.490Z,95704.81
2023-04-14T12:12:23.228Z,95701.19
2023-04-14T12:13:25.172Z,95701.19
2023-04-14T12:14:27.017Z,95700.41
2023-04-14T12:15:33.076Z,95698.84
2023-04-14T12:16:35.121Z,95695.06
2023-04-14T12:17:37.740Z,95694.63
2023-04-14T12:18:40.000Z,95692.66
2023-04-14T12:19:42.591Z,95705.56
2023-04-14T12:21:01.489Z,95704.22
2023-04-14T12:22:07.446Z,95698.03
2023-04-14T12:23:09.282Z,95706.00
2023-04-14T12:24:10.976Z,95694.47
2023-04-14T12:25:12.869Z,95697.06
2023-04-14T12:26:15.013Z,95696.06
2023-04-14T12:27:20.647Z,95697.25
2023-04-14T12:28:28.005Z,95696.84